sensor_id;sensor_type;location;lat;lon;timestamp;pressure;altitude;pressure_sealevel;temperature;humidity
38225;BME280;24025;48.138;11.428;2023-04-05T00:01:10;95940.59;;;0.28;55.37
38225;BME280;24025;48.138;11.428;2023-04-05T00:03:42;95943.00;;;0.24;56.07
38225;BME280;24025;48.138;11.428;2023-04-05T00:06:14;95936.19;;;0.23;55.87
38225;BME280;24025;48.138;11.428;2023-04-05T00:08:47;95930.47;;;0.21;56.32
38225;BME280;24025;48.138;11.428;2023-04-05T00:11:21;95931.25;;;0.22;56.32
38225;BME280;24025;48.138;11.428;2023-04-05T00:13:53;95929.41;;;0.22;56.26
38225;BME280;24025;48.138;11.428;2023-04-05T00:16:26;95927.34;;;0.19;56.00
38225;BME280;24025;48.138;11.428;2023-04-05T00:18:57;95922.88;;;0.20;56.71
38225;BME280;24025;48.138;11.428;2023-04-05T00:21:30;95927.91;;;0.16;56.03
38225;BME280;24025;48.138;11.428;2023-04-05T00:24:03;95928.97;;;0.15;56.22
38225;BME280;24025;48.138;11.428;2023-04-05T00:26:35;95919.06;;;0.12;56.15
38225;BME280;24025;48.138;11.428;2023-04-05T00:29:07;95923.59;;;0.07;55.81
38225;BME280;24025;48.138;11.428;2023-04-05T00:31:39;95917.38;;;0.03;56.15
38225;BME280;24025;48.138;11.428;2023-04-05T00:34:11;95919.78;;;-0.01;56.00
38225;BME280;24025;48.138;11.428;2023-04-05T00:36:43;95914.34;;;-0.05;55.93
38225;BME280;24025;48.138;11.428;2023-04-05T00:39:14;95913.34;;;-0.09;56.53
38225;BME280;24025;48.138;11.428;2023-04-05T00:41:46;95919.63;;;-0.10;56.46
38225;BME280;24025;48.138;11.428;2023-04-05T00:44:19;95907.09;;;-0.13;56.30
38225;BME280;24025;48.138;11.428;2023-04-05T00:46:50;95908.22;;;-0.19;56.76
38225;BME280;24025;48.138;11.428;2023-04-05T00:49:22;95908.03;;;-0.22;56.87
38225;BME280;24025;48.138;11.428;2023-04-05T00:51:55;95911.16;;;-0.20;57.74
38225;BME280;24025;48.138;11.428;2023-04-05T00:54:28;95908.53;;;-0.20;57.17
38225;BME280;24025;48.138;11.428;2023-04-05T00:57:00;95906.19;;;-0.22;57.76
38225;BME280;24025;48.138;11.428;2023-04-05T00:59:31;95905.91;;;-0.20;57.63
38225;BME280;24025;48.138;11.428;2023-04-05T01:02:27;95908.81;;;-0.22;57.41
38225;BME280;24025;48.138;11.428;2023-04-05T01:05:03;95903.09;;;-0.24;57.18
38225;BME280;24025;48.138;11.428;2023-04-05T01:07:56;95900.53;;;-0.29;57.28
38225;BME280;24025;48.138;11.428;2023-04-05T01:10:34;95893.25;;;-0.32;58.01
38225;BME280;24025;48.138;11.428;2023-04-05T01:13:05;95893.72;;;-0.30;58.13
38225;BME280;24025;48.138;11.428;2023-04-05T01:15:37;95886.88;;;-0.26;57.69
38225;BME280;24025;48.138;11.428;2023-04-05T01:18:09;95877.66;;;-0.23;57.71
38225;BME280;24025;48.138;11.428;2023-04-05T01:20:48;95885.22;;;-0.22;57.68
38225;BME280;24025;48.138;11.428;2023-04-05T01:23:45;95880.00;;;-0.22;57.73
38225;BME280;24025;48.138;11.428;2023-04-05T01:32:32;95871.16;;;-0.26;58.94
38225;BME280;24025;48.138;11.428;2023-04-05T01:35:09;95871.16;;;-0.26;58.87
38225;BME280;24025;48.138;11.428;2023-04-05T01:37:48;95870.09;;;-0.25;58.28
38225;BME280;24025;48.138;11.428;2023-04-05T01:40:21;95870.09;;;-0.25;58.14
38225;BME280;24025;48.138;11.428;2023-04-05T01:42:53;95867.19;;;-0.23;58.55
38225;BME280;24025;48.138;11.428;2023-04-05T01:45:24;95862.44;;;-0.21;58.96
38225;BME280;24025;48.138;11.428;2023-04-05T01:47:56;95855.97;;;-0.29;58.93
38225;BME280;24025;48.138;11.428;2023-04-05T01:50:31;95854.13;;;-0.29;58.22
38225;BME280;24025;48.138;11.428;2023-04-05T01:53:02;95852.88;;;-0.31;58.63
38225;BME280;24025;48.138;11.428;2023-04-05T01:55:34;95856.28;;;-0.31;58.85
38225;BME280;24025;48.138;11.428;2023-04-05T01:58:06;95852.88;;;-0.31;59.12
38225;BME280;24025;48.138;11.428;2023-04-05T02:00:37;95852.28;;;-0.28;59.54
38225;BME280;24025;48.138;11.428;2023-04-05T02:03:09;95847.34;;;-0.30;58.83
38225;BME280;24025;48.138;11.428;2023-04-05T02:05:41;95838.00;;;-0.36;58.63
38225;BME280;24025;48.138;11.428;2023-04-05T02:08:13;95849.19;;;-0.30;59.42
38225;BME280;24025;48.138;11.428;2023-04-05T02:10:44;95843.13;;;-0.25;58.13
38225;BME280;24025;48.138;11.428;2023-04-05T02:13:17;95844.66;;;-0.24;57.96
38225;BME280;24025;48.138;11.428;2023-04-05T02:15:49;95838.66;;;-0.25;57.86
38225;BME280;24025;48.138;11.428;2023-04-05T02:18:21;95842.59;;;-0.28;58.05
38225;BME280;24025;48.138;11.428;2023-04-05T02:20:52;95843.94;;;-0.30;58.41
38225;BME280;24025;48.138;11.428;2023-04-05T02:23:24;95840.84;;;-0.32;58.51
38225;BME280;24025;48.138;11.428;2023-04-05T02:25:57;95831.97;;;-0.36;58.89
38225;BME280;24025;48.138;11.428;2023-04-05T02:28:28;95835.47;;;-0.41;58.58
38225;BME280;24025;48.138;11.428;2023-04-05T02:31:00;95830.44;;;-0.37;58.65
38225;BME280;24025;48.138;11.428;2023-04-05T02:33:31;95835.47;;;-0.41;58.89
38225;BME280;24025;48.138;11.428;2023-04-05T02:36:05;95833.63;;;-0.40;59.36
38225;BME280;24025;48.138;11.428;2023-04-05T02:38:38;95826.84;;;-0.41;59.04
38225;BME280;24025;48.138;11.428;2023-04-05T02:41:10;95820.34;;;-0.44;58.95
38225;BME280;24025;48.138;11.428;2023-04-05T02:43:44;95823.50;;;-0.47;59.18
38225;BME280;24025;48.138;11.428;2023-04-05T02:46:16;95815.09;;;-0.44;59.18
38225;BME280;24025;48.138;11.428;2023-04-05T02:48:48;95818.50;;;-0.43;59.76
38225;BME280;24025;48.138;11.428;2023-04-05T02:51:19;95814.50;;;-0.41;59.01
38225;BME280;24025;48.138;11.428;2023-04-05T02:53:51;95818.69;;;-0.40;58.88
38225;BME280;24025;48.138;11.428;2023-04-05T02:56:23;95812.66;;;-0.40;59.15
38225;BME280;24025;48.138;11.428;2023-04-05T02:58:57;95814.28;;;-0.44;59.88
38225;BME280;24025;48.138;11.428;2023-04-05T03:01:28;95822.94;;;-0.44;59.66
38225;BME280;24025;48.138;11.428;2023-04-05T03:04:01;95820.03;;;-0.42;59.77
38225;BME280;24025;48.138;11.428;2023-04-05T03:06:33;95811.66;;;-0.44;60.50
38225;BME280;24025;48.138;11.428;2023-04-05T03:09:04;95813.44;;;-0.40;60.30
38225;BME280;24025;48.138;11.428;2023-04-05T03:11:36;95811.13;;;-0.41;59.85
38225;BME280;24025;48.138;11.428;2023-04-05T03:14:08;95810.06;;;-0.40;59.49
38225;BME280;24025;48.138;11.428;2023-04-05T03:16:42;95806.94;;;-0.42;60.35
38225;BME280;24025;48.138;11.428;2023-04-05T03:19:14;95806.94;;;-0.42;59.68
38225;BME280;24025;48.138;11.428;2023-04-05T03:21:47;95812.19;;;-0.42;59.62
38225;BME280;24025;48.138;11.428;2023-04-05T03:24:19;95806.44;;;-0.44;59.95
38225;BME280;24025;48.138;11.428;2023-04-05T03:26:51;95806.81;;;-0.51;60.51
38225;BME280;24025;48.138;11.428;2023-04-05T03:29:23;95812.59;;;-0.54;60.27
38225;BME280;24025;48.138;11.428;2023-04-05T03:31:57;95809.78;;;-0.58;60.47
38225;BME280;24025;48.138;11.428;2023-04-05T03:34:29;95806.38;;;-0.58;60.84
38225;BME280;24025;48.138;11.428;2023-04-05T03:37:01;95800.13;;;-0.62;60.29
38225;BME280;24025;48.138;11.428;2023-04-05T03:39:32;95799.44;;;-0.68;60.61
38225;BME280;24025;48.138;11.428;2023-04-05T03:42:04;95795.81;;;-0.72;60.96
38225;BME280;24025;48.138;11.428;2023-04-05T03:44:38;95798.44;;;-0.72;60.48
38225;BME280;24025;48.138;11.428;2023-04-05T03:47:10;95799.50;;;-0.73;60.92
38225;BME280;24025;48.138;11.428;2023-04-05T03:49:41;95801.63;;;-0.75;61.83
38225;BME280;24025;48.138;11.428;2023-04-05T03:52:13;95797.28;;;-0.79;61.60
38225;BME280;24025;48.138;11.428;2023-04-05T03:54:44;95799.88;;;-0.79;61.06
38225;BME280;24025;48.138;11.428;2023-04-05T03:57:16;95800.38;;;-0.77;61.42
38225;BME280;24025;48.138;11.428;2023-04-05T03:59:49;95796.19;;;-0.78;61.01
38225;BME280;24025;48.138;11.428;2023-04-05T04:02:21;95786.56;;;-0.83;61.55
38225;BME280;24025;48.138;11.428;2023-04-05T04:04:52;95788.69;;;-0.85;61.53
38225;BME280;24025;48.138;11.428;2023-04-05T04:07:24;95789.75;;;-0.86;61.53
38225;BME280;24025;48.138;11.428;2023-04-05T04:09:57;95795.00;;;-0.86;62.46
38225;BME280;24025;48.138;11.428;2023-04-05T04:12:28;95790.53;;;-0.86;61.56
38225;BME280;24025;48.138;11.428;2023-04-05T04:15:00;95791.31;;;-0.85;61.53
38225;BME280;24025;48.138;11.428;2023-04-05T04:17:33;95793.44;;;-0.87;61.99
38225;BME280;24025;48.138;11.428;2023-04-05T04:20:07;95798.16;;;-0.89;62.45
38225;BME280;24025;48.138;11.428;2023-04-05T04:22:41;95804.44;;;-0.90;62.59
38225;BME280;24025;48.138;11.428;2023-04-05T04:25:13;95793.50;;;-0.92;62.67
38225;BME280;24025;48.138;11.428;2023-04-05T04:27:45;95800.06;;;-0.95;62.96
38225;BME280;24025;48.138;11.428;2023-04-05T04:30:20;95800.91;;;-0.99;62.22
38225;BME280;24025;48.138;11.428;2023-04-05T04:32:52;95795.97;;;-1.01;62.21
38225;BME280;24025;48.138;11.428;2023-04-05T04:35:31;95797.03;;;-1.02;63.26
38225;BME280;24025;48.138;11.428;2023-04-05T04:38:07;95795.75;;;-1.04;62.79
38225;BME280;24025;48.138;11.428;2023-04-05T04:40:39;95796.38;;;-1.12;62.77
38225;BME280;24025;48.138;11.428;2023-04-05T04:43:13;95798.22;;;-1.13;62.58
38225;BME280;24025;48.138;11.428;2023-04-05T04:45:48;95797.50;;;-1.19;62.87
38225;BME280;24025;48.138;11.428;2023-04-05T04:48:22;95803.28;;;-1.22;63.19
38225;BME280;24025;48.138;11.428;2023-04-05T04:50:56;95803.06;;;-1.25;63.10
38225;BME280;24025;48.138;11.428;2023-04-05T04:53:29;95799.44;;;-1.29;63.10
38225;BME280;24025;48.138;11.428;2023-04-05T04:56:00;95794.44;;;-1.26;63.51
38225;BME280;24025;48.138;11.428;2023-04-05T04:58:32;95796.75;;;-1.24;62.78
38225;BME280;24025;48.138;11.428;2023-04-05T05:01:07;95794.16;;;-1.24;63.38
38225;BME280;24025;48.138;11.428;2023-04-05T05:03:41;95796.50;;;-1.23;63.17
38225;BME280;24025;48.138;11.428;2023-04-05T05:06:16;95797.00;;;-1.21;63.71
38225;BME280;24025;48.138;11.428;2023-04-05T05:08:47;95798.56;;;-1.20;63.65
38225;BME280;24025;48.138;11.428;2023-04-05T05:11:19;95794.31;;;-1.16;63.59
38225;BME280;24025;48.138;11.428;2023-04-05T05:13:51;95796.91;;;-1.16;63.09
38225;BME280;24025;48.138;11.428;2023-04-05T05:16:23;95798.75;;;-1.16;63.42
38225;BME280;24025;48.138;11.428;2023-04-05T05:18:55;95799.28;;;-1.14;62.80
38225;BME280;24025;48.138;11.428;2023-04-05T05:21:27;95796.09;;;-1.11;63.08
38225;BME280;24025;48.138;11.428;2023-04-05T05:23:58;95793.19;;;-1.09;63.41
38225;BME280;24025;48.138;11.428;2023-04-05T05:26:30;95798.38;;;-1.04;63.49
38225;BME280;24025;48.138;11.428;2023-04-05T05:29:02;95799.34;;;-1.00;63.51
38225;BME280;24025;48.138;11.428;2023-04-05T05:31:34;95800.38;;;-0.96;63.56
38225;BME280;24025;48.138;11.428;2023-04-05T05:34:06;95799.75;;;-0.88;63.30
38225;BME280;24025;48.138;11.428;2023-04-05T05:36:38;95796.75;;;-0.81;63.36
38225;BME280;24025;48.138;11.428;2023-04-05T05:39:09;95791.47;;;-0.76;63.21
38225;BME280;24025;48.138;11.428;2023-04-05T05:41:43;95802.84;;;-0.67;63.87
38225;BME280;24025;48.138;11.428;2023-04-05T05:44:14;95805.59;;;-0.59;63.35
38225;BME280;24025;48.138;11.428;2023-04-05T05:46:46;95817.00;;;-0.49;62.80
38225;BME280;24025;48.138;11.428;2023-04-05T05:49:18;95813.50;;;-0.45;62.42
38225;BME280;24025;48.138;11.428;2023-04-05T05:51:49;95819.16;;;-0.38;62.70
38225;BME280;24025;48.138;11.428;2023-04-05T05:54:24;95809.06;;;-0.25;62.04
38225;BME280;24025;48.138;11.428;2023-04-05T05:56:55;95809.25;;;-0.22;62.33
38225;BME280;24025;48.138;11.428;2023-04-05T05:59:27;95813.06;;;-0.14;62.18
38225;BME280;24025;48.138;11.428;2023-04-05T06:01:58;95807.94;;;-0.06;61.94
38225;BME280;24025;48.138;11.428;2023-04-05T06:04:30;95811.47;;;0.04;62.17
38225;BME280;24025;48.138;11.428;2023-04-05T06:07:02;95816.53;;;0.14;61.55
38225;BME280;24025;48.138;11.428;2023-04-05T06:09:34;95815.28;;;0.25;61.51
38225;BME280;24025;48.138;11.428;2023-04-05T06:12:05;95817.72;;;0.35;61.27
38225;BME280;24025;48.138;11.428;2023-04-05T06:14:37;95820.47;;;0.44;61.17
38225;BME280;24025;48.138;11.428;2023-04-05T06:17:09;95817.47;;;0.50;60.73
38225;BME280;24025;48.138;11.428;2023-04-05T06:19:41;95818.94;;;0.56;61.02
38225;BME280;24025;48.138;11.428;2023-04-05T06:22:13;95820.41;;;0.63;60.66
38225;BME280;24025;48.138;11.428;2023-04-05T06:24:44;95821.53;;;0.70;60.86
38225;BME280;24025;48.138;11.428;2023-04-05T06:27:16;95818.66;;;0.72;60.57
38225;BME280;24025;48.138;11.428;2023-04-05T06:29:47;95820.22;;;0.73;59.38
38225;BME280;24025;48.138;11.428;2023-04-05T06:32:19;95818.81;;;0.62;59.96
38225;BME280;24025;48.138;11.428;2023-04-05T06:34:51;95823.50;;;0.78;59.40
38225;BME280;24025;48.138;11.428;2023-04-05T06:37:23;95820.31;;;0.81;59.68
38225;BME280;24025;48.138;11.428;2023-04-05T06:39:55;95811.94;;;0.93;59.02
38225;BME280;24025;48.138;11.428;2023-04-05T06:42:27;95820.88;;;0.92;58.72
38225;BME280;24025;48.138;11.428;2023-04-05T06:44:58;95818.25;;;0.92;58.65
38225;BME280;24025;48.138;11.428;2023-04-05T06:47:37;95818.16;;;0.97;59.09
38225;BME280;24025;48.138;11.428;2023-04-05T06:50:09;95815.13;;;1.04;58.53
38225;BME280;24025;48.138;11.428;2023-04-05T06:52:40;95814.91;;;1.14;58.59
38225;BME280;24025;48.138;11.428;2023-04-05T06:55:13;95812.97;;;1.20;57.70
38225;BME280;24025;48.138;11.428;2023-04-05T06:57:48;95811.19;;;1.29;58.02
38225;BME280;24025;48.138;11.428;2023-04-05T07:00:20;95807.78;;;1.28;58.07
38225;BME280;24025;48.138;11.428;2023-04-05T07:02:51;95807.50;;;1.30;57.63
38225;BME280;24025;48.138;11.428;2023-04-05T07:05:23;95808.53;;;1.42;57.65
38225;BME280;24025;48.138;11.428;2023-04-05T07:07:54;95808.41;;;1.48;56.95
38225;BME280;24025;48.138;11.428;2023-04-05T07:10:26;95805.84;;;1.20;56.71
38225;BME280;24025;48.138;11.428;2023-04-05T07:12:57;95807.56;;;1.38;56.97
38225;BME280;24025;48.138;11.428;2023-04-05T07:15:29;95809.41;;;1.52;57.05
38225;BME280;24025;48.138;11.428;2023-04-05T07:18:00;95805.44;;;1.63;56.09
38225;BME280;24025;48.138;11.428;2023-04-05T07:20:32;95805.38;;;1.54;54.55
38225;BME280;24025;48.138;11.428;2023-04-05T07:23:04;95804.44;;;1.73;54.92
38225;BME280;24025;48.138;11.428;2023-04-05T07:25:38;95806.06;;;1.82;54.67
38225;BME280;24025;48.138;11.428;2023-04-05T07:28:10;95808.75;;;1.91;54.39
38225;BME280;24025;48.138;11.428;2023-04-05T07:30:42;95816.84;;;2.03;54.34
38225;BME280;24025;48.138;11.428;2023-04-05T07:33:14;95812.91;;;2.14;54.50
38225;BME280;24025;48.138;11.428;2023-04-05T07:35:51;95810.75;;;2.16;53.64
38225;BME280;24025;48.138;11.428;2023-04-05T07:38:25;95812.66;;;2.24;53.30
38225;BME280;24025;48.138;11.428;2023-04-05T07:40:57;95813.97;;;2.36;53.37
38225;BME280;24025;48.138;11.428;2023-04-05T07:43:29;95815.84;;;2.44;52.53
38225;BME280;24025;48.138;11.428;2023-04-05T07:46:02;95819.13;;;2.49;52.48
38225;BME280;24025;48.138;11.428;2023-04-05T07:48:34;95817.63;;;2.57;52.04
38225;BME280;24025;48.138;11.428;2023-04-05T07:51:06;95819.34;;;2.62;52.21
38225;BME280;24025;48.138;11.428;2023-04-05T07:53:38;95822.47;;;2.72;51.45
38225;BME280;24025;48.138;11.428;2023-04-05T07:56:12;95824.97;;;2.77;50.20
38225;BME280;24025;48.138;11.428;2023-04-05T07:58:46;95829.63;;;2.80;51.41
38225;BME280;24025;48.138;11.428;2023-04-05T08:01:20;95817.44;;;2.93;49.31
38225;BME280;24025;48.138;11.428;2023-04-05T08:03:54;95828.56;;;2.90;51.52
38225;BME280;24025;48.138;11.428;2023-04-05T08:06:27;95817.94;;;3.04;50.04
38225;BME280;24025;48.138;11.428;2023-04-05T08:09:01;95826.47;;;3.01;49.78
38225;BME280;24025;48.138;11.428;2023-04-05T08:11:36;95825.06;;;3.03;50.27
38225;BME280;24025;48.138;11.428;2023-04-05T08:14:08;95833.16;;;3.16;49.09
38225;BME280;24025;48.138;11.428;2023-04-05T08:16:39;95828.19;;;3.14;48.88
38225;BME280;24025;48.138;11.428;2023-04-05T08:19:11;95826.34;;;3.23;48.61
38225;BME280;24025;48.138;11.428;2023-04-05T08:21:45;95828.22;;;3.31;47.99
38225;BME280;24025;48.138;11.428;2023-04-05T08:24:17;95820.63;;;3.38;47.74
38225;BME280;24025;48.138;11.428;2023-04-05T08:26:49;95834.16;;;3.46;48.03
38225;BME280;24025;48.138;11.428;2023-04-05T08:29:20;95824.22;;;3.51;48.21
38225;BME280;24025;48.138;11.428;2023-04-05T08:31:55;95818.94;;;3.60;47.48
38225;BME280;24025;48.138;11.428;2023-04-05T08:34:28;95823.31;;;3.73;47.20
38225;BME280;24025;48.138;11.428;2023-04-05T08:36:59;95816.00;;;3.79;48.75
38225;BME280;24025;48.138;11.428;2023-04-05T08:39:33;95825.44;;;3.88;47.16
38225;BME280;24025;48.138;11.428;2023-04-05T08:42:14;95822.22;;;3.83;46.81
38225;BME280;24025;48.138;11.428;2023-04-05T08:44:50;95818.78;;;4.00;47.10
38225;BME280;24025;48.138;11.428;2023-04-05T08:47:24;95816.28;;;4.03;46.56
38225;BME280;24025;48.138;11.428;2023-04-05T08:49:56;95817.66;;;4.18;46.96
38225;BME280;24025;48.138;11.428;2023-04-05T08:52:28;95819.53;;;4.26;45.21
38225;BME280;24025;48.138;11.428;2023-04-05T08:55:01;95810.16;;;4.37;45.85
38225;BME280;24025;48.138;11.428;2023-04-05T08:57:36;95808.91;;;4.43;46.00
38225;BME280;24025;48.138;11.428;2023-04-05T09:00:10;95808.25;;;4.55;44.23
38225;BME280;24025;48.138;11.428;2023-04-05T09:02:43;95810.88;;;4.55;44.43
38225;BME280;24025;48.138;11.428;2023-04-05T09:05:19;95814.31;;;4.55;44.11
38225;BME280;24025;48.138;11.428;2023-04-05T09:07:51;95814.13;;;4.69;44.68
38225;BME280;24025;48.138;11.428;2023-04-05T09:10:23;95809.38;;;4.83;43.02
38225;BME280;24025;48.138;11.428;2023-04-05T09:12:56;95814.00;;;4.95;44.22
38225;BME280;24025;48.138;11.428;2023-04-05T09:15:31;95813.47;;;5.02;43.37
38225;BME280;24025;48.138;11.428;2023-04-05T09:18:04;95810.25;;;5.26;42.96
38225;BME280;24025;48.138;11.428;2023-04-05T09:20:49;95813.78;;;5.30;39.13
38225;BME280;24025;48.138;11.428;2023-04-05T09:23:21;95806.34;;;5.53;38.44
38225;BME280;24025;48.138;11.428;2023-04-05T09:25:52;95809.84;;;5.65;39.23
38225;BME280;24025;48.138;11.428;2023-04-05T09:28:39;95805.44;;;5.69;39.17
38225;BME280;24025;48.138;11.428;2023-04-05T09:31:34;95810.06;;;5.52;40.06
38225;BME280;24025;48.138;11.428;2023-04-05T09:34:07;95808.66;;;5.54;39.21
38225;BME280;24025;48.138;11.428;2023-04-05T09:36:42;95811.88;;;5.81;40.43
38225;BME280;24025;48.138;11.428;2023-04-05T09:39:15;95804.34;;;5.91;39.13
38225;BME280;24025;48.138;11.428;2023-04-05T09:45:00;95816.31;;;5.89;38.63
38225;BME280;24025;48.138;11.428;2023-04-05T09:47:33;95810.38;;;6.13;37.57
38225;BME280;24025;48.138;11.428;2023-04-05T09:52:45;95811.25;;;6.62;39.67
38225;BME280;24025;48.138;11.428;2023-04-05T09:55:26;95805.00;;;6.79;37.71
38225;BME280;24025;48.138;11.428;2023-04-05T09:57:58;95803.00;;;6.88;37.53
38225;BME280;24025;48.138;11.428;2023-04-05T10:00:29;95802.47;;;7.07;37.67
38225;BME280;24025;48.138;11.428;2023-04-05T10:03:04;95804.44;;;6.98;37.44
38225;BME280;24025;48.138;11.428;2023-04-05T10:05:37;95811.97;;;7.08;36.95
38225;BME280;24025;48.138;11.428;2023-04-05T10:08:08;95807.00;;;6.94;37.19
38225;BME280;24025;48.138;11.428;2023-04-05T10:10:46;95814.41;;;7.01;37.92
38225;BME280;24025;48.138;11.428;2023-04-05T10:13:18;95801.25;;;7.17;37.92
38225;BME280;24025;48.138;11.428;2023-04-05T10:15:53;95799.00;;;7.31;36.65
38225;BME280;24025;48.138;11.428;2023-04-05T10:18:30;95796.25;;;7.27;35.57
38225;BME280;24025;48.138;11.428;2023-04-05T10:21:10;95794.16;;;7.21;36.75
38225;BME280;24025;48.138;11.428;2023-04-05T10:23:45;95796.47;;;7.34;36.91
38225;BME280;24025;48.138;11.428;2023-04-05T10:26:35;95788.56;;;7.50;35.21
38225;BME280;24025;48.138;11.428;2023-04-05T10:29:21;95791.09;;;7.59;35.37
38225;BME280;24025;48.138;11.428;2023-04-05T10:32:08;95786.81;;;7.54;34.74
38225;BME280;24025;48.138;11.428;2023-04-05T10:34:50;95796.53;;;7.62;36.06
38225;BME280;24025;48.138;11.428;2023-04-05T10:37:38;95780.69;;;7.66;35.15
38225;BME280;24025;48.138;11.428;2023-04-05T10:40:15;95782.34;;;7.99;36.79
38225;BME280;24025;48.138;11.428;2023-04-05T10:42:50;95778.47;;;8.24;35.81
38225;BME280;24025;48.138;11.428;2023-04-05T10:45:22;95772.72;;;8.50;34.74
38225;BME280;24025;48.138;11.428;2023-04-05T10:48:06;95776.38;;;8.61;34.37
38225;BME280;24025;48.138;11.428;2023-04-05T10:50:43;95774.94;;;8.79;34.88
38225;BME280;24025;48.138;11.428;2023-04-05T10:53:14;95776.28;;;8.89;33.44
38225;BME280;24025;48.138;11.428;2023-04-05T10:55:47;95769.88;;;8.43;32.67
38225;BME280;24025;48.138;11.428;2023-04-05T10:58:21;95765.25;;;8.40;32.71
38225;BME280;24025;48.138;11.428;2023-04-05T11:00:54;95761.81;;;8.71;32.83
38225;BME280;24025;48.138;11.428;2023-04-05T11:06:31;95759.63;;;9.08;33.80
38225;BME280;24025;48.138;11.428;2023-04-05T11:09:18;95760.97;;;9.18;34.06
38225;BME280;24025;48.138;11.428;2023-04-05T11:11:51;95756.69;;;9.29;33.45
38225;BME280;24025;48.138;11.428;2023-04-05T11:14:36;95761.28;;;9.32;33.35
38225;BME280;24025;48.138;11.428;2023-04-05T11:17:26;95758.09;;;9.61;33.62
38225;BME280;24025;48.138;11.428;2023-04-05T11:20:05;95759.41;;;9.52;32.31
38225;BME280;24025;48.138;11.428;2023-04-05T11:22:52;95763.00;;;8.89;32.84
38225;BME280;24025;48.138;11.428;2023-04-05T11:25:24;95758.28;;;8.83;31.39
38225;BME280;24025;48.138;11.428;2023-04-05T11:27:59;95759.56;;;8.89;32.92
38225;BME280;24025;48.138;11.428;2023-04-05T11:30:51;95761.13;;;8.58;32.64
38225;BME280;24025;48.138;11.428;2023-04-05T11:44:44;95741.22;;;9.19;33.79
38225;BME280;24025;48.138;11.428;2023-04-05T11:47:17;95745.38;;;9.00;32.36
38225;BME280;24025;48.138;11.428;2023-04-05T11:49:51;95746.47;;;9.15;32.68
38225;BME280;24025;48.138;11.428;2023-04-05T11:52:23;95745.53;;;9.43;31.58
38225;BME280;24025;48.138;11.428;2023-04-05T11:54:54;95741.28;;;9.77;31.44
38225;BME280;24025;48.138;11.428;2023-04-05T11:57:26;95738.38;;;8.92;29.78
38225;BME280;24025;48.138;11.428;2023-04-05T11:59:59;95732.13;;;9.55;31.46
38225;BME280;24025;48.138;11.428;2023-04-05T12:02:33;95740.31;;;9.85;29.96
38225;BME280;24025;48.138;11.428;2023-04-05T12:05:05;95730.88;;;10.10;30.43
38225;BME280;24025;48.138;11.428;2023-04-05T12:07:37;95728.59;;;10.32;31.35
38225;BME280;24025;48.138;11.428;2023-04-05T12:10:09;95732.94;;;9.78;30.56
38225;BME280;24025;48.138;11.428;2023-04-05T12:12:44;95726.84;;;10.39;30.11
38225;BME280;24025;48.138;11.428;2023-04-05T12:15:17;95729.69;;;10.27;29.89
38225;BME280;24025;48.138;11.428;2023-04-05T12:17:50;95730.88;;;10.30;29.79
38225;BME280;24025;48.138;11.428;2023-04-05T12:20:24;95727.78;;;10.50;30.31
38225;BME280;24025;48.138;11.428;2023-04-05T12:22:56;95723.81;;;9.99;29.32
38225;BME280;24025;48.138;11.428;2023-04-05T12:25:28;95724.53;;;10.61;30.80
38225;BME280;24025;48.138;11.428;2023-04-05T12:28:05;95716.19;;;10.89;29.22
38225;BME280;24025;48.138;11.428;2023-04-05T12:30:47;95709.91;;;10.28;29.70
38225;BME280;24025;48.138;11.428;2023-04-05T12:33:30;95714.81;;;10.26;30.13
38225;BME280;24025;48.138;11.428;2023-04-05T12:36:04;95715.97;;;10.74;29.30
38225;BME280;24025;48.138;11.428;2023-04-05T12:38:36;95714.03;;;10.98;28.58
38225;BME280;24025;48.138;11.428;2023-04-05T12:41:08;95708.34;;;11.29;29.19
38225;BME280;24025;48.138;11.428;2023-04-05T12:43:41;95710.25;;;11.29;28.84
38225;BME280;24025;48.138;11.428;2023-04-05T12:46:17;95716.34;;;10.73;27.54
38225;BME280;24025;48.138;11.428;2023-04-05T12:48:49;95718.22;;;11.25;29.15
38225;BME280;24025;48.138;11.428;2023-04-05T12:51:23;95704.97;;;11.32;29.16
38225;BME280;24025;48.138;11.428;2023-04-05T12:53:55;95703.06;;;11.33;29.96
38225;BME280;24025;48.138;11.428;2023-04-05T12:56:28;95702.69;;;11.64;28.70
38225;BME280;24025;48.138;11.428;2023-04-05T12:59:04;95703.41;;;11.61;27.66
38225;BME280;24025;48.138;11.428;2023-04-05T13:01:37;95704.81;;;12.19;28.30
38225;BME280;24025;48.138;11.428;2023-04-05T13:04:09;95714.56;;;11.67;25.95
38225;BME280;24025;48.138;11.428;2023-04-05T13:06:44;95690.59;;;11.41;26.86
38225;BME280;24025;48.138;11.428;2023-04-05T13:09:18;95681.63;;;10.24;27.84
38225;BME280;24025;48.138;11.428;2023-04-05T13:11:49;95691.50;;;10.00;29.78
38225;BME280;24025;48.138;11.428;2023-04-05T13:14:21;95694.84;;;9.97;30.09
38225;BME280;24025;48.138;11.428;2023-04-05T13:16:52;95686.84;;;10.39;30.06
38225;BME280;24025;48.138;11.428;2023-04-05T13:19:24;95679.44;;;10.52;29.67
38225;BME280;24025;48.138;11.428;2023-04-05T13:21:56;95677.72;;;10.40;29.45
38225;BME280;24025;48.138;11.428;2023-04-05T13:24:27;95677.38;;;10.42;29.76
38225;BME280;24025;48.138;11.428;2023-04-05T13:26:59;95684.47;;;10.84;28.72
38225;BME280;24025;48.138;11.428;2023-04-05T13:29:32;95684.44;;;10.31;28.82
38225;BME280;24025;48.138;11.428;2023-04-05T13:32:04;95673.56;;;10.20;29.09
38225;BME280;24025;48.138;11.428;2023-04-05T13:34:35;95682.84;;;10.75;28.75
38225;BME280;24025;48.138;11.428;2023-04-05T13:37:07;95675.28;;;11.07;30.08
38225;BME280;24025;48.138;11.428;2023-04-05T13:39:38;95671.41;;;11.65;30.11
38225;BME280;24025;48.138;11.428;2023-04-05T13:42:10;95681.88;;;12.14;28.87
38225;BME280;24025;48.138;11.428;2023-04-05T13:44:44;95671.84;;;12.48;27.61
38225;BME280;24025;48.138;11.428;2023-04-05T13:47:15;95661.94;;;13.11;27.44
38225;BME280;24025;48.138;11.428;2023-04-05T13:49:48;95658.66;;;13.43;27.27
38225;BME280;24025;48.138;11.428;2023-04-05T13:52:20;95661.16;;;14.05;27.07
38225;BME280;24025;48.138;11.428;2023-04-05T13:54:51;95653.13;;;14.62;24.54